Aviation Digital Data Service (ADDS)

Output produced by TAFs form (1129 UTC 19 January 2018)
found at http://www.aviationweather.gov/adds/tafs/
 
RJCC 191100Z VRB02KT 9999 FEW030 SCT045 M09/M09 Q1019 RMK 1CU030 4CU045 A3010
TAF RJCC 191105Z 1912/2018 15005KT 9999 FEW001 SCT003 
     TEMPO 1915/1921 0700 FZFG VV001 
     BECMG 2003/2006 18016KT 
     TEMPO 2006/2009 1500 -SHSN FEW005 BKN008 
     BECMG 2009/2012 24008KT